Time;durP1;ratioP1;P1;durP2;ratioP2;P2;SDS_P1;SDS_P2;PMS_P1;PMS_P2;Temp;Humidity;BMP_temperature;BMP_pressure;BME280_temperature;BME280_humidity;BME280_pressure;Samples;Min_cycle;Max_cycle;Signal;HPM_P1;HPM_P2
2022/11/29 00:00:51;;;;;;;47.50;20.33;;;9.80;99.90;;;;;;5043402;28;20013;-42
2022/11/29 00:03:16;;;;;;;43.25;20.13;;;9.80;99.90;;;;;;5043056;28;20029;-41
2022/11/29 00:05:45;;;;;;;45.42;20.02;;;9.80;99.90;;;;;;5044084;28;20507;-40
2022/11/29 00:08:11;;;;;;;46.17;20.33;;;9.90;99.90;;;;;;5042985;28;20194;-44
2022/11/29 00:10:37;;;;;;;38.53;17.88;;;9.90;99.90;;;;;;5042453;28;20044;-40
2022/11/29 00:13:03;;;;;;;49.40;21.17;;;9.90;99.90;;;;;;5042785;28;20048;-41
2022/11/29 00:15:28;;;;;;;41.85;19.65;;;9.90;99.90;;;;;;5043850;28;20473;-41
2022/11/29 00:17:54;;;;;;;44.08;19.90;;;9.90;99.90;;;;;;5042644;28;20090;-40
2022/11/29 00:20:19;;;;;;;41.83;19.05;;;9.90;99.90;;;;;;5043488;28;20021;-40
2022/11/29 00:22:45;;;;;;;50.70;21.77;;;9.90;99.90;;;;;;5043648;28;20124;-41
2022/11/29 00:25:10;;;;;;;53.00;21.95;;;9.90;99.90;;;;;;5041946;28;20361;-40
2022/11/29 00:27:39;;;;;;;49.63;22.48;;;9.80;99.90;;;;;;5042962;28;20606;-42
2022/11/29 00:30:05;;;;;;;49.88;21.50;;;9.70;99.90;;;;;;5040007;28;20056;-40
2022/11/29 00:32:34;;;;;;;56.22;22.75;;;9.80;99.90;;;;;;5042346;28;20562;-40
2022/11/29 00:35:00;;;;;;;54.85;22.60;;;9.80;99.90;;;;;;5042833;28;20374;-42
2022/11/29 00:37:25;;;;;;;52.00;22.40;;;9.80;99.90;;;;;;5042929;28;20045;-41
2022/11/29 00:39:51;;;;;;;48.83;21.90;;;9.80;99.90;;;;;;5042006;28;20468;-42
2022/11/29 00:42:16;;;;;;;54.22;22.15;;;9.90;99.90;;;;;;5043088;28;20032;-41
2022/11/29 00:44:42;;;;;;;54.30;22.27;;;9.80;99.90;;;;;;5042860;28;20021;-41
2022/11/29 00:47:07;;;;;;;54.83;22.23;;;9.90;99.90;;;;;;5041797;28;20389;-41
2022/11/29 00:49:33;;;;;;;51.42;23.92;;;9.80;99.90;;;;;;5041788;28;20029;-41
2022/11/29 00:51:58;;;;;;;65.93;28.13;;;9.80;99.90;;;;;;5042133;28;20032;-41
2022/11/29 00:54:24;;;;;;;62.50;26.35;;;9.70;99.90;;;;;;5041372;28;20021;-41
2022/11/29 00:56:49;;;;;;;59.72;24.38;;;9.80;99.90;;;;;;5042413;28;20029;-41
2022/11/29 00:59:15;;;;;;;59.92;24.38;;;9.70;99.90;;;;;;5041407;28;20032;-42
2022/11/29 01:01:41;;;;;;;56.20;23.23;;;9.80;99.90;;;;;;5041677;28;20029;-40
2022/11/29 01:04:06;;;;;;;56.05;23.77;;;9.80;99.90;;;;;;5042436;28;20083;-40
2022/11/29 01:06:32;;;;;;;56.15;24.80;;;9.80;99.90;;;;;;5041976;28;20848;-42
2022/11/29 01:08:57;;;;;;;56.90;24.05;;;9.80;99.90;;;;;;5042191;28;20098;-41
2022/11/29 01:11:25;;;;;;;60.45;24.02;;;9.90;99.90;;;;;;5042864;28;20029;-41
2022/11/29 01:13:54;;;;;;;59.40;23.30;;;9.90;99.90;;;;;;5041971;28;20037;-42
2022/11/29 01:16:21;;;;;;;51.65;21.58;;;9.90;99.90;;;;;;5042416;28;20027;-42
2022/11/29 01:18:46;;;;;;;57.33;22.70;;;9.90;99.90;;;;;;5042410;28;20670;-42
2022/11/29 01:21:18;;;;;;;56.80;23.55;;;10.00;99.90;;;;;;5041561;28;20480;-42
2022/11/29 01:23:45;;;;;;;54.42;23.00;;;10.00;99.90;;;;;;5040933;28;20477;-40
2022/11/29 01:26:13;;;;;;;55.05;22.48;;;10.00;99.90;;;;;;5041315;28;20028;-42
2022/11/29 01:28:39;;;;;;;51.58;22.67;;;10.00;99.90;;;;;;5041575;28;20040;-41
2022/11/29 01:31:14;;;;;;;52.38;23.55;;;10.00;99.90;;;;;;5041890;28;20021;-42
2022/11/29 01:33:40;;;;;;;51.40;20.95;;;10.00;99.90;;;;;;5041441;28;20393;-43
2022/11/29 01:36:07;;;;;;;43.78;19.95;;;10.00;99.90;;;;;;5041262;28;20037;-41
2022/11/29 01:38:33;;;;;;;51.75;21.30;;;10.00;99.90;;;;;;5042137;28;20040;-40
2022/11/29 01:41:06;;;;;;;52.38;21.95;;;10.00;99.90;;;;;;5042126;28;20009;-41
2022/11/29 01:43:33;;;;;;;52.65;22.00;;;9.90;99.90;;;;;;5040714;28;20033;-42
2022/11/29 01:45:58;;;;;;;50.58;21.38;;;9.90;99.90;;;;;;5041398;28;20027;-41
2022/11/29 01:48:29;;;;;;;50.38;21.80;;;9.90;99.90;;;;;;5041912;28;20034;-41
2022/11/29 01:50:59;;;;;;;48.40;21.20;;;9.90;99.90;;;;;;5041100;28;20021;-41
2022/11/29 01:53:26;;;;;;;56.75;22.33;;;10.00;99.90;;;;;;5041111;28;20033;-41
2022/11/29 01:55:55;;;;;;;51.30;21.17;;;10.00;99.90;;;;;;5040205;28;20028;-42
2022/11/29 01:58:21;;;;;;;47.08;20.30;;;10.00;99.90;;;;;;5040933;28;20033;-41
2022/11/29 02:00:47;;;;;;;49.05;20.90;;;10.00;99.90;;;;;;5041283;28;20017;-40
2022/11/29 02:03:15;;;;;;;51.80;22.30;;;10.00;99.90;;;;;;5040130;28;20039;-41
2022/11/29 02:05:44;;;;;;;50.97;21.42;;;9.90;99.90;;;;;;5040770;28;20031;-40
2022/11/29 02:08:13;;;;;;;59.00;25.17;;;9.90;99.90;;;;;;5039991;28;20510;-41
2022/11/29 02:11:11;;;;;;;56.70;25.00;;;9.90;99.90;;;;;;5040118;28;20265;-40
2022/11/29 02:13:50;;;;;;;63.92;24.52;;;9.80;99.90;;;;;;5038239;28;20049;-41
2022/11/29 02:16:50;;;;;;;54.20;23.73;;;9.80;99.90;;;;;;5040473;28;20037;-41
2022/11/29 02:19:52;;;;;;;54.17;23.65;;;9.70;99.90;;;;;;5030888;28;20033;-42
2022/11/29 02:22:34;;;;;;;53.05;24.60;;;9.80;99.90;;;;;;5040595;28;20029;-41
2022/11/29 02:25:27;;;;;;;62.28;24.67;;;9.70;99.90;;;;;;5040641;28;20037;-40
2022/11/29 02:28:20;;;;;;;58.50;24.95;;;9.60;99.90;;;;;;5040561;28;20037;-41
2022/11/29 02:31:00;;;;;;;58.50;24.90;;;9.60;99.90;;;;;;5039850;28;20044;-41
2022/11/29 02:33:50;;;;;;;55.03;22.02;;;9.70;99.90;;;;;;5040482;28;20020;-41
2022/11/29 02:36:48;;;;;;;55.42;22.50;;;9.70;99.90;;;;;;5020226;28;20507;-41
2022/11/29 02:39:56;;;;;;;52.08;21.10;;;9.70;99.90;;;;;;5038802;28;20044;-41
2022/11/29 02:42:50;;;;;;;47.97;20.20;;;9.70;99.90;;;;;;5040298;28;20054;-41
2022/11/29 02:45:45;;;;;;;49.85;20.77;;;9.70;99.90;;;;;;5031200;28;20086;-41
2022/11/29 02:48:44;;;;;;;42.85;18.60;;;9.70;99.90;;;;;;5040422;28;20075;-41
2022/11/29 02:51:17;;;;;;;42.78;19.00;;;9.70;99.90;;;;;;5040792;28;20033;-41
2022/11/29 02:53:52;;;;;;;;;;;9.80;99.90;;;;;;5039655;28;20377;-42
2022/11/29 02:56:33;;;;;;;47.95;19.27;;;9.80;99.90;;;;;;5040385;28;20761;-42
2022/11/29 02:59:22;;;;;;;46.78;20.88;;;9.70;99.90;;;;;;5039928;28;20033;-42
2022/11/29 03:01:54;;;;;;;47.83;20.95;;;9.80;99.90;;;;;;5041045;28;20029;-42
2022/11/29 03:04:33;;;;;;;52.35;21.00;;;9.80;99.90;;;;;;5040188;28;20087;-42
2022/11/29 03:07:24;;;;;;;52.33;21.17;;;9.80;99.90;;;;;;5039803;28;20527;-41
2022/11/29 03:10:28;;;;;;;58.47;26.02;;;9.80;99.90;;;;;;5040644;28;20143;-40
2022/11/29 03:12:54;;;;;;;55.60;23.75;;;9.80;99.90;;;;;;5038758;28;20040;-41
2022/11/29 03:15:28;;;;;;;58.00;24.92;;;9.70;99.90;;;;;;5039425;28;20029;-42
2022/11/29 03:18:25;;;;;;;55.30;24.20;;;9.70;99.90;;;;;;5040157;28;20069;-42
2022/11/29 03:21:04;;;;;;;61.00;23.77;;;9.70;99.90;;;;;;5037120;28;20017;-41
2022/11/29 03:23:44;;;;;;;59.88;24.00;;;9.70;99.90;;;;;;5039731;28;20025;-39
2022/11/29 03:26:25;;;;;;;55.67;23.55;;;9.70;99.90;;;;;;5034887;28;20033;-40
2022/11/29 03:29:05;;;;;;;55.75;22.60;;;9.70;99.90;;;;;;5039716;28;20033;-40
2022/11/29 03:31:49;;;;;;;56.25;22.75;;;9.80;99.90;;;;;;5040702;28;20017;-41
2022/11/29 03:34:48;;;;;;;52.47;21.00;;;9.80;99.90;;;;;;5039816;28;20775;-41
2022/11/29 03:37:36;;;;;;;49.72;21.27;;;9.80;99.90;;;;;;5033791;28;20056;-41
2022/11/29 03:40:39;;;;;;;50.00;20.35;;;9.80;99.90;;;;;;5041323;28;20050;-42
2022/11/29 03:43:21;;;;;;;52.92;21.65;;;9.80;99.90;;;;;;5033324;28;20115;-39
2022/11/29 03:45:56;;;;;;;54.73;22.53;;;9.90;99.90;;;;;;5040193;28;20029;-41
2022/11/29 03:48:48;;;;;;;60.25;24.60;;;9.90;99.90;;;;;;5041822;28;20029;-41
2022/11/29 03:51:45;;;;;;;58.40;23.17;;;9.90;99.90;;;;;;5044157;28;20036;-41
2022/11/29 03:54:18;;;;;;;67.30;25.55;;;9.80;99.90;;;;;;5041827;28;20862;-40
2022/11/29 03:56:44;;;;;;;66.60;25.55;;;9.80;99.90;;;;;;5042248;28;20033;-40
2022/11/29 03:59:30;;;;;;;60.63;24.50;;;9.70;99.90;;;;;;5043885;28;20091;-41
2022/11/29 04:02:11;;;;;;;62.00;24.35;;;9.70;99.90;;;;;;5039688;28;20029;-40
2022/11/29 04:05:11;;;;;;;59.80;22.85;;;9.80;99.90;;;;;;5043322;28;20028;-41
2022/11/29 04:08:03;;;;;;;58.22;23.35;;;9.80;99.90;;;;;;5043137;28;20047;-40
2022/11/29 04:10:59;;;;;;;61.10;23.55;;;9.80;99.90;;;;;;5040626;28;20797;-40
2022/11/29 04:13:46;;;;;;;55.60;21.90;;;9.80;99.90;;;;;;5035992;28;20029;-41
2022/11/29 04:16:42;;;;;;;57.42;21.92;;;9.80;99.90;;;;;;5042665;28;20029;-41
2022/11/29 04:19:35;;;;;;;54.83;20.88;;;9.80;99.90;;;;;;5042755;28;20037;-42
2022/11/29 04:22:24;;;;;;;60.45;22.77;;;9.70;99.90;;;;;;5042797;28;20643;-42
2022/11/29 04:25:11;;;;;;;61.15;22.83;;;9.80;99.90;;;;;;5022534;28;20034;-42
2022/11/29 04:27:40;;;;;;;54.85;22.38;;;9.80;99.90;;;;;;5040830;28;20804;-40
2022/11/29 04:30:23;;;;;;;50.70;21.25;;;9.70;99.90;;;;;;5042848;28;20094;-39
2022/11/29 04:33:00;;;;;;;44.92;20.55;;;9.70;99.90;;;;;;5042367;28;20025;-41
2022/11/29 04:35:44;;;;;;;58.55;21.73;;;9.70;99.90;;;;;;5043038;28;20051;-40
2022/11/29 04:38:40;;;;;;;56.33;21.17;;;9.60;99.90;;;;;;5041894;28;20109;-41
2022/11/29 04:41:27;;;;;;;51.47;20.40;;;9.60;99.90;;;;;;5042880;28;20036;-41
2022/11/29 04:44:24;;;;;;;46.63;19.05;;;9.60;99.90;;;;;;5042949;28;20641;-41
2022/11/29 04:47:01;;;;;;;47.47;18.48;;;9.60;99.90;;;;;;5033599;28;20103;-41
2022/11/29 04:49:51;;;;;;;48.80;18.80;;;9.60;99.90;;;;;;5043042;28;20029;-41
2022/11/29 04:52:35;;;;;;;52.97;19.92;;;9.60;99.90;;;;;;5042271;28;20024;-41
2022/11/29 04:55:16;;;;;;;49.40;19.27;;;9.70;99.90;;;;;;5043230;28;20450;-40
2022/11/29 04:57:50;;;;;;;48.13;18.80;;;9.70;99.90;;;;;;5042004;28;20044;-42
2022/11/29 05:00:20;;;;;;;50.55;19.58;;;9.70;99.90;;;;;;5041706;28;20036;-41
2022/11/29 05:02:58;;;;;;;50.40;19.42;;;9.70;99.90;;;;;;5042827;28;20033;-41
2022/11/29 05:05:52;;;;;;;52.35;20.80;;;9.80;99.90;;;;;;5042073;28;20499;-41
2022/11/29 05:08:26;;;;;;;49.63;19.27;;;9.80;99.90;;;;;;5042366;28;20041;-42
2022/11/29 05:11:17;;;;;;;46.75;19.30;;;9.80;99.90;;;;;;5041997;28;20068;-42
2022/11/29 05:14:12;;;;;;;51.95;19.52;;;9.80;99.90;;;;;;5041018;28;20029;-41
2022/11/29 05:16:44;;;;;;;35.53;15.00;;;9.80;99.90;;;;;;5022631;28;20110;-41
2022/11/29 05:19:26;;;;;;;;;;;9.80;99.90;;;;;;5039182;28;20032;-41
2022/11/29 05:22:23;;;;;;;54.35;19.38;;;9.80;99.90;;;;;;5041491;28;19909;-41
2022/11/29 05:25:18;;;;;;;44.17;17.10;;;9.60;99.90;;;;;;5041421;28;20080;-42
2022/11/29 05:28:05;;;;;;;41.38;17.17;;;9.60;99.90;;;;;;5041046;28;20476;-41
2022/11/29 05:30:50;;;;;;;42.78;16.58;;;9.60;99.90;;;;;;5042174;28;20029;-41
2022/11/29 05:33:57;;;;;;;45.90;16.80;;;9.60;99.90;;;;;;5040245;28;20032;-42
2022/11/29 05:36:50;;;;;;;42.05;17.15;;;9.60;99.90;;;;;;5035644;28;20788;-40
2022/11/29 05:39:28;;;;;;;45.28;18.08;;;9.60;99.90;;;;;;5041884;28;20111;-40
2022/11/29 05:42:22;;;;;;;48.22;18.27;;;9.60;99.90;;;;;;5040983;28;20460;-42
2022/11/29 05:44:57;;;;;;;48.08;18.02;;;9.70;99.90;;;;;;5040964;28;20037;-42
2022/11/29 05:47:38;;;;;;;54.70;17.90;;;9.60;99.90;;;;;;5022189;28;20484;-42
2022/11/29 05:50:25;;;;;;;46.78;18.13;;;9.60;99.90;;;;;;5037728;28;20068;-42
2022/11/29 05:53:12;;;;;;;51.33;18.45;;;9.60;99.90;;;;;;5021788;28;20750;-40
2022/11/29 05:55:47;;;;;;;56.28;19.70;;;9.60;99.90;;;;;;5040259;28;20056;-41
2022/11/29 05:58:57;;;;;;;53.10;18.90;;;9.60;99.90;;;;;;5041719;28;20024;-41
2022/11/29 06:01:41;;;;;;;47.22;17.45;;;9.70;99.90;;;;;;5040655;28;20635;-42
2022/11/29 06:04:27;;;;;;;52.20;19.05;;;9.60;99.90;;;;;;5041538;28;20031;-41
2022/11/29 06:07:25;;;;;;;53.35;18.90;;;9.60;99.90;;;;;;5031011;28;20028;-42
2022/11/29 06:10:02;;;;;;;51.25;19.25;;;9.60;99.90;;;;;;5035593;28;20420;-40
2022/11/29 06:12:34;;;;;;;54.72;19.23;;;9.70;99.90;;;;;;5040392;28;20052;-40
2022/11/29 06:15:37;;;;;;;50.03;18.67;;;9.70;99.90;;;;;;5040562;28;20021;-40
2022/11/29 06:18:23;;;;;;;46.63;18.35;;;9.70;99.90;;;;;;5039956;28;20036;-40
2022/11/29 06:20:57;;;;;;;47.17;19.13;;;9.70;99.90;;;;;;5040117;28;20036;-40
2022/11/29 06:24:07;;;;;;;49.10;18.17;;;9.60;99.90;;;;;;5039467;28;20029;-40
2022/11/29 06:26:53;;;;;;;46.97;18.88;;;9.70;99.90;;;;;;5039619;28;20471;-40
2022/11/29 06:29:28;;;;;;;49.97;18.00;;;9.60;99.90;;;;;;5040118;28;20043;-39
2022/11/29 06:32:25;;;;;;;39.65;17.10;;;9.60;99.90;;;;;;5038791;28;20051;-40
2022/11/29 06:35:06;;;;;;;38.75;15.68;;;9.60;99.90;;;;;;5029396;28;20029;-40
2022/11/29 06:37:47;;;;;;;34.88;15.50;;;9.60;99.90;;;;;;5037470;28;20128;-41
2022/11/29 06:40:14;;;;;;;43.97;17.80;;;9.60;99.90;;;;;;5040449;28;20037;-42
2022/11/29 06:42:40;;;;;;;41.95;17.88;;;9.60;99.90;;;;;;5039876;28;20039;-44
2022/11/29 06:45:06;;;;;;;42.35;17.15;;;9.50;99.90;;;;;;5039225;28;20033;-41
2022/11/29 06:48:00;;;;;;;30.33;14.70;;;9.50;99.90;;;;;;5039323;28;20044;-40
2022/11/29 06:50:52;;;;;;;41.35;16.48;;;9.50;99.90;;;;;;5041076;28;20028;-41
2022/11/29 06:53:37;;;;;;;45.35;17.15;;;9.50;99.90;;;;;;5030219;28;20025;-42
2022/11/29 06:56:21;;;;;;;43.53;17.40;;;9.50;99.90;;;;;;5040555;28;20025;-41
2022/11/29 06:59:07;;;;;;;46.53;17.73;;;9.50;99.90;;;;;;5040094;28;20480;-39
2022/11/29 07:01:40;;;;;;;46.05;18.67;;;9.50;99.90;;;;;;5040828;28;20382;-42
2022/11/29 07:04:15;;;;;;;;;;;9.50;99.90;;;;;;5040994;28;20065;-38
2022/11/29 07:06:41;;;;;;;38.05;15.38;;;9.50;99.90;;;;;;5040084;28;19909;-41
2022/11/29 07:09:17;;;;;;;48.20;18.35;;;9.40;99.90;;;;;;5040283;28;20094;-41
2022/11/29 07:11:43;;;;;;;53.55;20.08;;;9.40;99.90;;;;;;5040993;28;20017;-42
2022/11/29 07:14:10;;;;;;;49.22;18.38;;;9.30;99.90;;;;;;5040152;28;20500;-41
2022/11/29 07:16:54;;;;;;;48.25;18.15;;;9.30;99.90;;;;;;5040213;28;20103;-40
2022/11/29 07:19:47;;;;;;;46.35;17.55;;;9.30;99.90;;;;;;5030586;28;20024;-40
2022/11/29 07:22:24;;;;;;;47.70;17.98;;;9.40;99.90;;;;;;5042783;28;20040;-41
2022/11/29 07:25:08;;;;;;;43.65;17.80;;;9.40;99.90;;;;;;5042758;28;20106;-41
2022/11/29 07:27:40;;;;;;;41.13;16.70;;;9.40;99.90;;;;;;5040984;28;20786;-41
2022/11/29 07:30:08;;;;;;;39.08;16.58;;;9.40;99.90;;;;;;5042567;28;20129;-42
2022/11/29 07:33:19;;;;;;;44.33;17.13;;;9.50;99.90;;;;;;5042617;28;21297;-42
2022/11/29 07:36:10;;;;;;;37.67;15.40;;;9.50;99.90;;;;;;5042574;28;20140;-41
2022/11/29 07:39:13;;;;;;;39.05;15.95;;;9.50;99.90;;;;;;5042440;28;20579;-40
2022/11/29 07:41:56;;;;;;;36.40;15.30;;;9.40;99.90;;;;;;5023788;28;20033;-42
2022/11/29 07:44:27;;;;;;;42.92;17.48;;;9.40;99.90;;;;;;5044013;28;20056;-41
2022/11/29 07:46:53;;;;;;;35.97;15.70;;;9.40;99.90;;;;;;5044125;28;20065;-43
2022/11/29 07:49:18;;;;;;;40.70;18.67;;;9.30;99.90;;;;;;5042998;28;20021;-42
2022/11/29 07:51:44;;;;;;;40.42;17.95;;;9.20;99.90;;;;;;5043788;28;20025;-42
2022/11/29 07:54:12;;;;;;;45.45;19.80;;;9.20;99.90;;;;;;5042762;28;20071;-41
2022/11/29 07:56:37;;;;;;;44.40;17.75;;;9.10;99.90;;;;;;5043579;28;20029;-41
2022/11/29 07:59:03;;;;;;;42.85;16.90;;;9.10;99.90;;;;;;5042827;28;20028;-41
2022/11/29 08:01:29;;;;;;;40.63;15.68;;;9.10;99.90;;;;;;5043400;28;21001;-41
2022/11/29 08:03:55;;;;;;;37.38;14.88;;;9.10;99.90;;;;;;5043409;28;20035;-41
2022/11/29 08:06:25;;;;;;;36.05;14.23;;;9.10;99.90;;;;;;5043804;28;20028;-37
2022/11/29 08:08:50;;;;;;;34.50;14.10;;;9.10;99.90;;;;;;5042091;28;20060;-41
2022/11/29 08:11:16;;;;;;;34.45;14.30;;;9.20;99.90;;;;;;5043856;28;20199;-41
2022/11/29 08:13:41;;;;;;;33.22;14.30;;;9.20;99.90;;;;;;5043414;28;20102;-39
2022/11/29 08:16:07;;;;;;;33.67;13.05;;;9.30;99.90;;;;;;5042829;28;20017;-41
2022/11/29 08:18:34;;;;;;;37.92;14.05;;;9.30;99.90;;;;;;5042695;28;20021;-41
2022/11/29 08:21:05;;;;;;;33.85;14.35;;;9.30;99.90;;;;;;5042685;28;20130;-39
2022/11/29 08:23:30;;;;;;;36.40;13.10;;;9.40;99.90;;;;;;5042893;28;20076;-39
2022/11/29 08:26:00;;;;;;;38.00;14.85;;;9.40;99.90;;;;;;5042865;28;20029;-43
2022/11/29 08:28:26;;;;;;;25.88;11.85;;;9.40;99.90;;;;;;5043351;28;20037;-39
2022/11/29 08:31:02;;;;;;;31.20;13.70;;;9.50;99.90;;;;;;5042273;28;20686;-41
2022/11/29 08:33:28;;;;;;;37.92;14.13;;;9.40;99.90;;;;;;5042440;28;20032;-41
2022/11/29 08:35:54;;;;;;;33.70;14.27;;;9.40;99.90;;;;;;5041707;28;20082;-40
2022/11/29 08:38:20;;;;;;;35.92;13.80;;;9.40;99.90;;;;;;5042235;28;20056;-41
2022/11/29 08:40:46;;;;;;;25.27;11.43;;;9.40;99.90;;;;;;5042415;28;20036;-41
2022/11/29 08:43:11;;;;;;;32.88;14.02;;;9.40;99.90;;;;;;5042463;28;20484;-42
2022/11/29 08:45:37;;;;;;;31.30;13.27;;;9.40;99.90;;;;;;5042335;28;20070;-41
2022/11/29 08:48:02;;;;;;;31.00;12.88;;;9.40;99.90;;;;;;5041167;28;20047;-41
2022/11/29 08:50:28;;;;;;;31.15;12.85;;;9.50;99.90;;;;;;5042417;28;20033;-41
2022/11/29 08:55:41;;;;;;;29.38;12.98;;;9.50;99.90;;;;;;5042580;28;20773;-40
2022/11/29 08:58:13;;;;;;;26.58;12.05;;;9.50;99.90;;;;;;5041477;28;20025;-41
2022/11/29 09:00:39;;;;;;;35.33;12.45;;;9.50;99.90;;;;;;5042356;28;20027;-40
2022/11/29 09:05:50;;;;;;;28.65;11.40;;;9.50;99.90;;;;;;5041646;28;20516;-42
2022/11/29 09:08:16;;;;;;;24.80;11.40;;;9.50;99.90;;;;;;5042709;28;20491;-41
2022/11/29 09:10:42;;;;;;;27.75;12.90;;;9.50;99.90;;;;;;5042158;28;20127;-41
2022/11/29 09:13:09;;;;;;;30.65;12.68;;;9.50;99.90;;;;;;5041564;28;20033;-41
2022/11/29 09:15:38;;;;;;;29.10;12.75;;;9.50;99.90;;;;;;5042236;28;20024;-42
2022/11/29 09:18:04;;;;;;;36.65;13.75;;;9.50;99.90;;;;;;5042147;28;20047;-41
2022/11/29 09:20:31;;;;;;;32.35;14.18;;;9.50;99.90;;;;;;5041422;28;20491;-42
2022/11/29 09:22:58;;;;;;;34.03;14.45;;;9.50;99.90;;;;;;5041535;28;20021;-42
2022/11/29 09:25:23;;;;;;;31.65;13.73;;;9.50;99.90;;;;;;5042135;28;20131;-41
2022/11/29 09:27:50;;;;;;;29.42;12.50;;;9.50;99.90;;;;;;5040331;28;20036;-39
2022/11/29 09:30:16;;;;;;;30.90;12.95;;;9.60;99.90;;;;;;5041291;28;20586;-40
2022/11/29 09:32:42;;;;;;;30.45;12.63;;;9.50;99.90;;;;;;5040945;28;20033;-41
2022/11/29 09:35:07;;;;;;;26.45;11.15;;;9.50;99.90;;;;;;5041696;28;20025;-42
2022/11/29 09:37:35;;;;;;;30.50;11.45;;;9.50;99.90;;;;;;5041560;28;20045;-41
2022/11/29 09:40:02;;;;;;;22.38;10.77;;;9.50;99.90;;;;;;5041380;28;20033;-39
2022/11/29 09:42:54;;;;;;;24.23;10.63;;;9.50;99.90;;;;;;5041937;28;20029;-41
2022/11/29 09:45:27;;;;;;;24.02;11.00;;;9.50;99.90;;;;;;5021519;28;20048;-40
2022/11/29 09:48:24;;;;;;;22.70;10.35;;;9.50;99.90;;;;;;5035537;28;20048;-41
2022/11/29 09:51:15;;;;;;;26.27;11.63;;;9.60;99.90;;;;;;5039126;28;20119;-41
2022/11/29 09:54:19;;;;;;;25.55;11.45;;;9.60;99.90;;;;;;5041196;28;20021;-41
2022/11/29 09:56:50;;;;;;;27.95;11.98;;;9.60;99.90;;;;;;5040832;28;20477;-41
2022/11/29 09:59:26;;;;;;;25.73;10.63;;;9.70;99.90;;;;;;5041005;28;20437;-40
2022/11/29 10:02:03;;;;;;;22.48;10.07;;;9.70;99.90;;;;;;5041139;28;20028;-40
2022/11/29 10:04:35;;;;;;;22.08;11.32;;;9.70;99.90;;;;;;5041263;28;20025;-41
2022/11/29 10:07:15;;;;;;;23.88;11.00;;;9.70;99.90;;;;;;5040586;28;20032;-41
2022/11/29 10:10:00;;;;;;;21.20;10.05;;;9.80;99.90;;;;;;5040080;28;20036;-40
2022/11/29 10:12:43;;;;;;;25.00;10.90;;;9.70;99.90;;;;;;5041288;28;20020;-42
2022/11/29 10:15:22;;;;;;;24.02;10.00;;;9.70;99.90;;;;;;5030286;28;20058;-41
2022/11/29 10:18:03;;;;;;;24.70;10.38;;;9.70;99.90;;;;;;5040717;28;20025;-41
2022/11/29 10:20:33;;;;;;;21.75;10.20;;;9.80;99.90;;;;;;5041344;28;20064;-41
2022/11/29 10:23:02;;;;;;;22.65;11.05;;;9.80;99.90;;;;;;5040687;28;20029;-40
2022/11/29 10:25:36;;;;;;;20.30;9.75;;;9.80;99.90;;;;;;5041278;28;20384;-40
2022/11/29 10:28:03;;;;;;;19.95;9.35;;;9.80;99.90;;;;;;5040427;28;20119;-40
2022/11/29 10:30:33;;;;;;;22.60;10.45;;;9.80;99.90;;;;;;5040473;28;20047;-40
2022/11/29 10:32:59;;;;;;;25.00;10.82;;;9.80;99.90;;;;;;5040680;28;20031;-40
2022/11/29 10:35:25;;;;;;;23.83;10.65;;;9.90;99.90;;;;;;5041326;28;20060;-39
2022/11/29 10:37:55;;;;;;;24.60;10.10;;;9.90;99.90;;;;;;5040161;28;20064;-37
2022/11/29 10:40:27;;;;;;;19.77;9.75;;;9.90;99.90;;;;;;5040017;28;20025;-41
2022/11/29 10:42:53;;;;;;;20.55;10.32;;;9.90;99.90;;;;;;5041524;28;20036;-41
2022/11/29 10:45:34;;;;;;;21.25;10.50;;;9.90;99.90;;;;;;5039897;28;20033;-41
2022/11/29 10:48:11;;;;;;;21.85;10.10;;;9.90;99.90;;;;;;5041046;28;20043;-42
2022/11/29 10:50:40;;;;;;;21.63;10.05;;;9.90;99.90;;;;;;5040778;28;20096;-42
2022/11/29 10:53:10;;;;;;;22.00;10.18;;;10.00;99.90;;;;;;5040807;28;20563;-42
2022/11/29 10:56:14;;;;;;;22.48;9.90;;;10.00;99.90;;;;;;5040497;28;20040;-40
2022/11/29 10:59:17;;;;;;;19.08;9.65;;;10.10;99.90;;;;;;5043001;28;20120;-39
2022/11/29 11:01:43;;;;;;;19.23;9.30;;;10.10;99.90;;;;;;5034362;28;20036;-41
2022/11/29 11:04:30;;;;;;;20.98;8.77;;;10.20;99.90;;;;;;5044676;28;20049;-42
2022/11/29 11:07:00;;;;;;;16.73;8.70;;;10.20;99.90;;;;;;5034918;28;20025;-42
2022/11/29 11:09:41;;;;;;;17.70;9.65;;;10.30;99.90;;;;;;5045064;28;20378;-41
2022/11/29 11:12:18;;;;;;;18.83;9.27;;;10.20;99.90;;;;;;5043843;28;20090;-40
2022/11/29 11:14:45;;;;;;;16.90;8.40;;;10.10;99.90;;;;;;5044340;28;20112;-41
2022/11/29 11:17:28;;;;;;;18.40;9.00;;;10.10;99.90;;;;;;5044274;28;20790;-39
2022/11/29 11:19:59;;;;;;;20.40;9.40;;;10.10;99.90;;;;;;5043901;28;20040;-40
2022/11/29 11:22:26;;;;;;;21.13;9.70;;;10.20;99.90;;;;;;5044241;28;20103;-41
2022/11/29 11:25:02;;;;;;;16.67;8.48;;;10.30;99.90;;;;;;5043652;28;20052;-40
2022/11/29 11:27:38;;;;;;;17.88;9.15;;;10.30;99.90;;;;;;5032717;28;20044;-40
2022/11/29 11:30:06;;;;;;;20.48;10.18;;;10.30;99.90;;;;;;5043767;28;20017;-42
2022/11/29 11:32:32;;;;;;;20.23;9.60;;;10.20;99.90;;;;;;5043622;28;20498;-40
2022/11/29 11:35:00;;;;;;;19.55;9.10;;;10.20;99.90;;;;;;5043417;28;20667;-39
2022/11/29 11:37:34;;;;;;;20.77;9.05;;;10.30;99.90;;;;;;5043345;28;20064;-40
2022/11/29 11:40:19;;;;;;;20.83;10.23;;;10.30;99.90;;;;;;5042889;28;20029;-38
2022/11/29 11:42:45;;;;;;;21.38;10.15;;;10.30;99.90;;;;;;5041742;28;20021;-41
2022/11/29 11:45:11;;;;;;;21.20;9.07;;;10.40;99.90;;;;;;5044272;28;20025;-41
2022/11/29 11:48:09;;;;;;;20.63;9.20;;;10.40;99.90;;;;;;5042932;28;20790;-40
2022/11/29 11:50:57;;;;;;;20.95;10.38;;;10.40;99.90;;;;;;5041729;28;20583;-41
2022/11/29 11:53:27;;;;;;;17.65;8.75;;;10.40;99.90;;;;;;5033274;28;20743;-41
2022/11/29 11:55:59;;;;;;;16.65;8.77;;;10.40;99.90;;;;;;5042720;28;20021;-40
2022/11/29 11:58:37;;;;;;;16.27;8.30;;;10.40;99.90;;;;;;5043661;28;20060;-40
2022/11/29 12:01:12;;;;;;;22.00;10.32;;;10.40;99.90;;;;;;5042080;28;20090;-41
2022/11/29 12:03:53;;;;;;;19.02;9.57;;;10.40;99.90;;;;;;5043581;28;20034;-41
2022/11/29 12:06:27;;;;;;;23.08;10.25;;;10.40;99.90;;;;;;5043226;28;20033;-42
2022/11/29 12:09:18;;;;;;;21.02;10.18;;;10.40;99.90;;;;;;5031387;28;20036;-42
2022/11/29 12:12:02;;;;;;;22.77;10.40;;;10.30;99.90;;;;;;5031352;28;20033;-41
2022/11/29 12:15:00;;;;;;;27.17;10.55;;;10.40;99.90;;;;;;5042522;28;20033;-42
2022/11/29 12:17:48;;;;;;;21.20;10.60;;;10.40;99.90;;;;;;5043366;28;20700;-41
2022/11/29 12:20:39;;;;;;;23.48;10.40;;;10.40;99.90;;;;;;5043547;28;20130;-41
2022/11/29 12:23:08;;;;;;;26.40;11.63;;;10.50;99.90;;;;;;5038887;28;20515;-41
2022/11/29 12:25:50;;;;;;;25.08;11.25;;;10.50;99.90;;;;;;5043007;28;20040;-41
2022/11/29 12:28:18;;;;;;;23.10;10.48;;;10.40;99.90;;;;;;5043538;28;20041;-40
2022/11/29 12:31:11;;;;;;;23.08;10.23;;;10.50;99.90;;;;;;5042737;28;20060;-41
2022/11/29 12:34:09;;;;;;;24.00;10.75;;;10.50;99.90;;;;;;5043149;28;20056;-39
2022/11/29 12:36:44;;;;;;;23.77;10.35;;;10.50;99.90;;;;;;5021892;28;20497;-42
2022/11/29 12:39:36;;;;;;;24.77;10.63;;;10.60;99.90;;;;;;5042572;28;20029;-42
2022/11/29 12:42:09;;;;;;;25.35;11.18;;;10.70;99.90;;;;;;5043100;28;20028;-41
2022/11/29 12:44:42;;;;;;;25.60;11.63;;;10.70;99.90;;;;;;5041810;28;20033;-40
2022/11/29 12:47:23;;;;;;;28.77;13.35;;;10.70;99.90;;;;;;5042432;28;20029;-40
2022/11/29 12:50:16;;;;;;;28.65;12.30;;;10.60;99.90;;;;;;5039004;28;20021;-41
2022/11/29 12:52:55;;;;;;;23.83;11.02;;;10.60;99.90;;;;;;5043152;28;20142;-41
2022/11/29 12:55:27;;;;;;;24.40;10.85;;;10.60;99.90;;;;;;5042042;28;20158;-43
2022/11/29 12:58:16;;;;;;;25.48;12.27;;;10.60;99.90;;;;;;5041750;28;20082;-41
2022/11/29 13:01:21;;;;;;;21.52;10.98;;;10.60;99.90;;;;;;5032981;28;20020;-41
2022/11/29 13:04:23;;;;;;;22.35;10.57;;;10.60;99.90;;;;;;5041611;28;20107;-41
2022/11/29 13:07:04;;;;;;;21.80;10.45;;;10.70;99.90;;;;;;5042216;28;20063;-40
2022/11/29 13:10:03;;;;;;;25.45;12.93;;;10.70;99.90;;;;;;5042632;28;20370;-41
2022/11/29 13:12:38;;;;;;;27.00;13.20;;;10.70;99.90;;;;;;5041804;28;20033;-40
2022/11/29 13:15:24;;;;;;;25.25;11.88;;;10.70;99.90;;;;;;5041470;28;20806;-43
2022/11/29 13:18:36;;;;;;;27.58;12.45;;;10.70;99.90;;;;;;5041883;28;20029;-40
2022/11/29 13:21:39;;;;;;;25.83;11.68;;;10.70;99.90;;;;;;5039875;28;20071;-40
2022/11/29 13:24:25;;;;;;;21.10;10.77;;;10.60;99.90;;;;;;5041767;28;20017;-40
2022/11/29 13:26:52;;;;;;;20.70;11.88;;;10.60;99.90;;;;;;5041408;28;20507;-38
2022/11/29 13:29:20;;;;;;;22.50;10.50;;;10.60;99.90;;;;;;5042027;28;20035;-40
2022/11/29 13:31:49;;;;;;;20.48;11.52;;;10.50;99.90;;;;;;5041364;28;20031;-38
2022/11/29 13:34:20;;;;;;;21.80;10.48;;;10.40;99.90;;;;;;5041345;28;20763;-41